createdAt,value
2022-08-05T00:00:50.550Z,99223.84
2022-08-05T00:03:52.471Z,99214.00
2022-08-05T00:06:54.915Z,99207.00
2022-08-05T00:09:57.596Z,99206.44
2022-08-05T00:13:00.328Z,99213.91
2022-08-05T00:16:02.294Z,99215.25
2022-08-05T00:19:04.618Z,99215.56
2022-08-05T00:22:06.335Z,99213.69
2022-08-05T00:25:12.676Z,99220.88
2022-08-05T00:28:15.174Z,99223.03
2022-08-05T00:31:53.237Z,99225.72
2022-08-05T00:35:04.511Z,99231.59
2022-08-05T00:38:09.437Z,99221.22
2022-08-05T00:41:11.694Z,99219.06
2022-08-05T00:44:13.747Z,99224.69
2022-08-05T00:47:16.465Z,99223.34
2022-08-05T00:50:20.927Z,99224.41
2022-08-05T00:54:00.396Z,99217.75
2022-08-05T00:56:51.494Z,99223.06
2022-08-05T00:59:53.576Z,99223.34
2022-08-05T01:02:56.411Z,99220.41
2022-08-05T01:05:58.069Z,99212.69
2022-08-05T01:09:00.637Z,99214.28
2022-08-05T01:12:18.209Z,99209.75
2022-08-05T01:15:36.375Z,99206.56
2022-08-05T01:18:43.204Z,99199.63
2022-08-05T01:22:28.130Z,99200.16
2022-08-05T01:25:53.774Z,99209.50
2022-08-05T01:29:05.395Z,99209.50
2022-08-05T01:32:12.466Z,99215.06
2022-08-05T01:35:50.606Z,99204.69
2022-08-05T01:38:49.998Z,99197.50
2022-08-05T01:41:53.500Z,99199.63
2022-08-05T01:44:57.135Z,99212.44
2022-08-05T01:48:03.169Z,99199.09
2022-08-05T01:51:13.063Z,99211.09
2022-08-05T01:54:14.699Z,99208.66
2022-08-05T01:58:09.366Z,99209.72
2022-08-05T02:00:54.027Z,99207.00
2022-08-05T02:03:55.579Z,99205.66
2022-08-05T02:06:59.473Z,99204.88
2022-08-05T02:10:02.783Z,99205.97
2022-08-05T02:13:13.038Z,99209.97
2022-08-05T02:16:52.896Z,99207.00
2022-08-05T02:20:00.927Z,99204.88
2022-08-05T02:23:08.698Z,99202.44
2022-08-05T02:26:11.866Z,99208.31
2022-08-05T02:29:21.374Z,99210.69
2022-08-05T02:32:30.975Z,99216.31
2022-08-05T02:35:38.557Z,99211.25
2022-08-05T02:38:53.973Z,99202.72
2022-08-05T02:42:00.634Z,99204.31
2022-08-05T02:45:03.971Z,99203.00
2022-08-05T02:48:11.922Z,99212.56
2022-08-05T02:51:15.723Z,99203.00
2022-08-05T02:54:35.687Z,99205.38
2022-08-05T02:58:09.834Z,99196.53
2022-08-05T03:01:02.431Z,99195.47
2022-08-05T03:04:14.019Z,99200.56
2022-08-05T03:07:40.337Z,99202.66
2022-08-05T03:10:38.306Z,99202.41
2022-08-05T03:13:51.781Z,99205.09
2022-08-05T03:17:05.045Z,99197.97
2022-08-05T03:20:11.220Z,99204.16
2022-08-05T03:23:15.326Z,99207.06
2022-08-05T03:26:31.471Z,99208.63
2022-08-05T03:29:45.120Z,99206.25
2022-08-05T03:32:55.789Z,99207.06
2022-08-05T03:35:58.995Z,99205.47
2022-08-05T03:39:07.815Z,99204.69
2022-08-05T03:42:09.699Z,99209.22
2022-08-05T03:45:22.416Z,99214.28
2022-08-05T03:48:24.965Z,99213.72
2022-08-05T03:52:49.231Z,99216.38
2022-08-05T03:56:09.453Z,99215.59
2022-08-05T03:58:29.369Z,99217.16
2022-08-05T04:01:32.187Z,99217.44
2022-08-05T04:04:34.134Z,99223.56
2022-08-05T04:07:36.151Z,99216.09
2022-08-05T04:10:58.814Z,99220.09
2022-08-05T04:14:00.532Z,99220.84
2022-08-05T04:17:03.314Z,99223.75
2022-08-05T04:20:08.012Z,99229.59
2022-08-05T04:23:16.026Z,99232.50
2022-08-05T04:26:18.053Z,99229.81
2022-08-05T04:29:20.245Z,99233.81
2022-08-05T04:32:31.083Z,99232.47
2022-08-05T04:36:16.270Z,99226.59
2022-08-05T04:38:57.681Z,99234.03
2022-08-05T04:41:59.700Z,99235.63
2022-08-05T04:45:01.383Z,99234.31
2022-08-05T04:48:16.337Z,99231.66
2022-08-05T04:51:20.538Z,99244.41
2022-08-05T04:54:27.259Z,99250.72
2022-08-05T04:57:30.141Z,99255.19
2022-08-05T05:00:40.066Z,99242.91
2022-08-05T05:03:42.158Z,99243.38
2022-08-05T05:06:51.931Z,99241.47
2022-08-05T05:09:59.305Z,99241.72
2022-08-05T05:13:04.652Z,99245.47
2022-08-05T05:16:07.148Z,99247.91
2022-08-05T05:19:19.207Z,99248.50
2022-08-05T05:22:26.619Z,99255.16
2022-08-05T05:25:33.002Z,99256.47
2022-08-05T05:28:44.950Z,99254.88
2022-08-05T05:31:47.284Z,99258.38
2022-08-05T05:34:48.975Z,99263.69
2022-08-05T05:37:59.939Z,99259.16
2022-08-05T05:41:02.417Z,99258.63
2022-08-05T05:44:04.430Z,99260.50
2022-08-05T05:47:30.189Z,99265.38
2022-08-05T05:50:47.850Z,99273.44
2022-08-05T05:53:57.960Z,99267.63
2022-08-05T05:57:01.272Z,99273.03
2022-08-05T06:00:10.408Z,99278.94
2022-08-05T06:03:40.079Z,99276.31
2022-08-05T06:06:38.401Z,99286.44
2022-08-05T06:10:01.677Z,99280.06
2022-08-05T06:13:05.494Z,99276.88
2022-08-05T06:16:28.160Z,99288.31
2022-08-05T06:19:34.228Z,99286.41
2022-08-05T06:22:37.359Z,99282.94
2022-08-05T06:26:12.237Z,99287.69
2022-08-05T06:29:06.472Z,99294.34
2022-08-05T06:32:29.238Z,99302.03
2022-08-05T06:36:09.338Z,99291.88
2022-08-05T06:38:54.753Z,99297.72
2022-08-05T06:42:04.379Z,99294.22
2022-08-05T06:45:08.904Z,99301.13
2022-08-05T06:48:37.316Z,99301.31
2022-08-05T06:51:32.750Z,99309.84
2022-08-05T06:54:34.676Z,99303.94
2022-08-05T06:57:57.270Z,99313.44
2022-08-05T07:01:00.899Z,99317.63
2022-08-05T07:04:03.176Z,99324.81
2022-08-05T07:07:06.258Z,99323.88
2022-08-05T07:10:10.395Z,99315.34
2022-08-05T07:13:56.970Z,99313.25
2022-08-05T07:17:56.776Z,99334.13
2022-08-05T07:20:34.077Z,99331.56
2022-08-05T07:23:49.075Z,99337.50
2022-08-05T07:26:52.047Z,99340.97
2022-08-05T07:30:28.428Z,99350.81
2022-08-05T07:33:16.792Z,99335.31
2022-08-05T07:36:20.397Z,99339.13
2022-08-05T07:39:24.629Z,99340.81
2022-08-05T07:42:45.095Z,99336.81
2022-08-05T07:45:57.201Z,99337.84
2022-08-05T07:49:05.907Z,99346.75
2022-08-05T07:52:09.556Z,99342.44
2022-08-05T07:55:43.851Z,99345.84
2022-08-05T07:58:58.543Z,99349.03
2022-08-05T08:01:57.679Z,99348.38
2022-08-05T08:05:00.622Z,99347.28
2022-08-05T08:08:02.973Z,99353.94
2022-08-05T08:11:04.752Z,99345.63
2022-08-05T08:14:10.760Z,99349.34
2022-08-05T08:17:21.426Z,99357.78
2022-08-05T08:21:00.266Z,99359.66
2022-08-05T08:24:03.101Z,99363.06
2022-08-05T08:27:07.347Z,99364.72
2022-08-05T08:30:20.307Z,99357.38
2022-08-05T08:33:37.540Z,99348.94
2022-08-05T08:36:52.521Z,99316.66
2022-08-05T08:39:57.522Z,99348.53
2022-08-05T08:45:19.455Z,99366.25
2022-08-05T08:46:21.925Z,99376.88
2022-08-05T08:50:14.572Z,99373.28
2022-08-05T08:52:51.857Z,99366.03
2022-08-05T08:56:04.357Z,99373.22
2022-08-05T08:59:10.087Z,99365.13
2022-08-05T09:02:21.648Z,99366.72
2022-08-05T09:05:39.005Z,99357.03
2022-08-05T09:08:50.324Z,99370.50
2022-08-05T09:11:54.769Z,99387.38
2022-08-05T09:15:06.155Z,99396.47
2022-08-05T09:18:09.950Z,99373.44
2022-08-05T09:21:20.848Z,99384.03
2022-08-05T09:24:40.287Z,99377.41
2022-08-05T09:28:05.874Z,99364.00
2022-08-05T09:31:44.110Z,99370.84
2022-08-05T09:34:53.232Z,99376.09
2022-08-05T09:38:17.119Z,99383.38
2022-08-05T09:41:18.807Z,99373.59
2022-08-05T09:44:56.145Z,99364.31
2022-08-05T09:47:58.631Z,99379.78
2022-08-05T09:51:03.486Z,99378.91
2022-08-05T09:54:28.786Z,99379.19
2022-08-05T09:57:47.182Z,99369.19
2022-08-05T10:01:13.556Z,99358.84
2022-08-05T10:04:17.686Z,99362.91
2022-08-05T10:08:10.744Z,99368.97
2022-08-05T10:10:45.047Z,99370.16
2022-08-05T10:13:49.996Z,99379.69
2022-08-05T10:16:57.897Z,99373.13
2022-08-05T10:20:03.754Z,99382.75
2022-08-05T10:23:34.368Z,99358.53
2022-08-05T10:26:36.595Z,99390.72
2022-08-05T10:30:06.468Z,99394.84
2022-08-05T10:33:15.102Z,99393.03
2022-08-05T10:36:17.130Z,99371.19
2022-08-05T10:40:03.610Z,99408.94
2022-08-05T10:42:52.822Z,99388.81
2022-08-05T10:46:06.822Z,99389.03
2022-08-05T10:49:10.448Z,99361.41
2022-08-05T10:52:49.579Z,99401.81
2022-08-05T10:56:21.301Z,99400.16
2022-08-05T11:00:04.249Z,99407.31
2022-08-05T11:03:23.701Z,99422.59
2022-08-05T11:06:30.804Z,99408.09
2022-08-05T11:09:46.572Z,99416.03
2022-08-05T11:12:50.558Z,99428.34
2022-08-05T11:16:23.409Z,99427.25
2022-08-05T11:20:16.554Z,99430.84
2022-08-05T11:24:04.075Z,99437.41
2022-08-05T11:27:45.737Z,99432.19
2022-08-05T11:30:56.203Z,99452.94
2022-08-05T11:34:03.190Z,99451.56
2022-08-05T11:37:06.246Z,99442.66
2022-08-05T11:41:35.359Z,99447.75
2022-08-05T11:44:40.320Z,99446.56
2022-08-05T11:47:55.676Z,99475.63
2022-08-05T11:50:57.491Z,99432.31
2022-08-05T11:54:01.471Z,99455.34
2022-08-05T11:57:08.338Z,99473.00
2022-08-05T12:00:27.738Z,99462.59
2022-08-05T12:03:31.911Z,99464.63
2022-08-05T12:06:35.516Z,99455.78
2022-08-05T12:09:53.272Z,99451.88
2022-08-05T12:12:59.507Z,99449.91
2022-08-05T12:16:01.841Z,99451.91
2022-08-05T12:19:04.446Z,99477.84
2022-08-05T12:22:10.927Z,99464.41
2022-08-05T12:25:14.372Z,99454.56
2022-08-05T12:28:33.200Z,99457.47
2022-08-05T12:31:43.749Z,99460.28
2022-08-05T12:34:48.015Z,99472.53
2022-08-05T12:37:53.288Z,99472.91
2022-08-05T12:40:57.596Z,99484.16
2022-08-05T12:44:14.153Z,99473.53
2022-08-05T12:47:30.725Z,99471.84
2022-08-05T12:50:32.894Z,99458.09
2022-08-05T12:53:43.995Z,99463.59
2022-08-05T12:56:59.599Z,99471.13
2022-08-05T13:01:57.259Z,99454.34
2022-08-05T13:03:24.521Z,99454.78
2022-08-05T13:06:38.674Z,99468.81
2022-08-05T13:09:57.047Z,99452.16
2022-08-05T13:13:00.070Z,99466.53
2022-08-05T13:16:12.358Z,99460.09
2022-08-05T13:19:17.514Z,99460.41
2022-08-05T13:22:29.608Z,99481.47
2022-08-05T13:25:51.855Z,99466.81
2022-08-05T13:28:53.615Z,99481.41
2022-08-05T13:32:04.060Z,99488.50
2022-08-05T13:35:07.537Z,99479.97
2022-08-05T13:38:10.781Z,99470.81
2022-08-05T13:41:23.920Z,99483.19
2022-08-05T13:44:39.157Z,99494.22
2022-08-05T13:48:09.935Z,99458.75
2022-08-05T13:51:10.401Z,99490.97
2022-08-05T13:54:15.177Z,99505.31
2022-08-05T13:57:17.391Z,99488.47
2022-08-05T14:00:27.740Z,99511.09
2022-08-05T14:03:29.806Z,99508.50
2022-08-05T14:06:34.501Z,99491.28
2022-08-05T14:09:42.845Z,99520.22
2022-08-05T14:12:49.191Z,99509.06
2022-08-05T14:16:06.927Z,99522.34
2022-08-05T14:19:12.568Z,99523.75
2022-08-05T14:22:14.555Z,99518.75
2022-08-05T14:25:21.505Z,99526.63
2022-08-05T14:28:27.119Z,99537.41
2022-08-05T14:32:02.882Z,99559.69
2022-08-05T14:34:52.047Z,99545.16
2022-08-05T14:37:55.635Z,99549.13
2022-08-05T14:40:57.837Z,99557.97
2022-08-05T14:44:09.526Z,99552.53
2022-08-05T14:47:16.670Z,99560.19
2022-08-05T14:50:40.766Z,99562.94
2022-08-05T14:53:44.358Z,99562.88
2022-08-05T14:56:47.282Z,99576.72
2022-08-05T14:59:49.014Z,99580.56
2022-08-05T15:02:50.989Z,99587.94
2022-08-05T15:06:12.807Z,99575.56
2022-08-05T15:09:14.605Z,99585.97
2022-08-05T15:12:17.371Z,99585.94
2022-08-05T15:15:55.354Z,99586.38
2022-08-05T15:18:42.362Z,99587.56
2022-08-05T15:21:49.039Z,99595.16
2022-08-05T15:24:50.744Z,99589.06
2022-08-05T15:27:54.840Z,99596.72
2022-08-05T15:30:57.191Z,99597.41
2022-08-05T15:34:18.763Z,99601.56
2022-08-05T15:38:34.811Z,99587.41
2022-08-05T15:41:20.098Z,99585.00
2022-08-05T15:44:04.464Z,99592.88
2022-08-05T15:47:06.527Z,99605.50
2022-08-05T15:50:09.052Z,99615.03
2022-08-05T15:53:17.587Z,99610.13
2022-08-05T15:56:23.124Z,99575.09
2022-08-05T15:59:24.939Z,99641.75
2022-08-05T16:02:26.937Z,99626.63
2022-08-05T16:05:30.541Z,99639.47
2022-08-05T16:08:32.596Z,99640.50
2022-08-05T16:11:40.086Z,99642.78
2022-08-05T16:14:44.999Z,99637.91
2022-08-05T16:17:57.422Z,99633.31
2022-08-05T16:21:04.396Z,99649.00
2022-08-05T16:24:12.841Z,99652.00
2022-08-05T16:27:32.018Z,99651.59
2022-08-05T16:30:48.604Z,99651.06
2022-08-05T16:33:52.290Z,99655.34
2022-08-05T16:36:55.495Z,99638.97
2022-08-05T16:40:04.709Z,99649.28
2022-08-05T16:43:08.484Z,99641.84
2022-08-05T16:46:23.646Z,99650.81
2022-08-05T16:49:26.647Z,99641.50
2022-08-05T16:52:32.705Z,99648.13
2022-08-05T16:55:47.172Z,99664.00
2022-08-05T16:58:49.145Z,99658.16
2022-08-05T17:01:54.477Z,99672.13
2022-08-05T17:04:57.360Z,99670.81
2022-08-05T17:07:59.149Z,99682.56
2022-08-05T17:11:01.971Z,99686.41
2022-08-05T17:14:05.691Z,99690.28
2022-08-05T17:17:14.317Z,99694.78
2022-08-05T17:20:17.040Z,99697.91
2022-08-05T17:24:03.715Z,99703.41
2022-08-05T17:26:42.274Z,99697.69
2022-08-05T17:29:44.232Z,99693.66
2022-08-05T17:32:48.243Z,99703.75
2022-08-05T17:36:08.346Z,99700.44
2022-08-05T17:39:23.983Z,99698.53
2022-08-05T17:42:34.166Z,99688.25
2022-08-05T17:45:43.151Z,99689.03
2022-08-05T17:48:44.966Z,99685.94
2022-08-05T17:51:50.170Z,99697.31
2022-08-05T17:54:52.794Z,99701.44
2022-08-05T17:57:55.345Z,99706.72
2022-08-05T18:00:57.114Z,99699.81
2022-08-05T18:04:04.673Z,99705.00
2022-08-05T18:07:07.946Z,99705.84
2022-08-05T18:10:21.131Z,99701.34
2022-08-05T18:13:23.240Z,99703.66
2022-08-05T18:16:27.517Z,99707.19
2022-08-05T18:19:29.978Z,99704.94
2022-08-05T18:22:36.300Z,99717.88
2022-08-05T18:25:47.783Z,99714.50
2022-08-05T18:28:59.708Z,99717.28
2022-08-05T18:32:01.405Z,99716.53
2022-08-05T18:35:05.302Z,99715.66
2022-08-05T18:38:07.717Z,99721.22
2022-08-05T18:41:58.150Z,99720.34
2022-08-05T18:44:34.865Z,99725.31
2022-08-05T18:47:38.161Z,99729.69
2022-08-05T18:52:03.353Z,99738.31
2022-08-05T18:54:20.799Z,99743.03
2022-08-05T18:57:23.878Z,99743.41
2022-08-05T19:00:29.001Z,99737.56
2022-08-05T19:03:52.723Z,99743.91
2022-08-05T19:06:53.757Z,99745.63
2022-08-05T19:09:56.696Z,99749.03
2022-08-05T19:12:58.474Z,99748.38
2022-08-05T19:16:03.775Z,99746.06
2022-08-05T19:19:05.713Z,99754.69
2022-08-05T19:22:07.421Z,99751.03
2022-08-05T19:25:10.704Z,99770.47
2022-08-05T19:28:23.513Z,99770.50
2022-08-05T19:31:26.411Z,99768.19
2022-08-05T19:34:35.443Z,99776.13
2022-08-05T19:38:04.188Z,99782.22
2022-08-05T19:40:58.840Z,99778.81
2022-08-05T19:44:13.487Z,99775.25
2022-08-05T19:47:16.563Z,99774.84
2022-08-05T19:50:20.044Z,99786.66
2022-08-05T19:54:04.222Z,99785.34
2022-08-05T19:56:43.581Z,99779.72
2022-08-05T19:59:54.800Z,99791.00
2022-08-05T20:03:08.607Z,99803.63
2022-08-05T20:06:15.238Z,99795.03
2022-08-05T20:09:17.546Z,99802.53
2022-08-05T20:12:20.970Z,99813.00
2022-08-05T20:15:52.327Z,99826.63
2022-08-05T20:18:45.082Z,99831.97
2022-08-05T20:21:46.777Z,99837.28
2022-08-05T20:24:48.486Z,99828.72
2022-08-05T20:27:50.702Z,99838.34
2022-08-05T20:30:52.419Z,99828.19
2022-08-05T20:33:54.314Z,99835.16
2022-08-05T20:36:56.054Z,99849.56
2022-08-05T20:39:58.413Z,99843.91
2022-08-05T20:43:00.375Z,99842.88
2022-08-05T20:46:02.139Z,99850.31
2022-08-05T20:49:03.918Z,99847.66
2022-08-05T20:52:08.716Z,99855.13
2022-08-05T20:56:07.309Z,99861.78
2022-08-05T20:58:34.206Z,99865.75
2022-08-05T21:01:38.193Z,99865.44
2022-08-05T21:04:40.760Z,99851.63
2022-08-05T21:07:45.740Z,99848.50
2022-08-05T21:10:53.659Z,99844.47
2022-08-05T21:13:56.743Z,99807.88
2022-08-05T21:16:58.750Z,99844.97
2022-08-05T21:20:04.325Z,99859.41
2022-08-05T21:23:12.915Z,99865.25
2022-08-05T21:26:15.894Z,99851.91
2022-08-05T21:29:17.830Z,99886.84
2022-08-05T21:32:20.378Z,99874.78
2022-08-05T21:35:30.084Z,99895.34
2022-08-05T21:38:32.459Z,99896.94
2022-08-05T21:41:35.533Z,99898.91
2022-08-05T21:44:37.621Z,99901.09
2022-08-05T21:47:56.255Z,99905.84
2022-08-05T21:50:59.450Z,99907.13
2022-08-05T21:54:03.746Z,99904.94
2022-08-05T21:57:29.699Z,99901.13
2022-08-05T22:00:28.366Z,99905.53
2022-08-05T22:03:51.923Z,99886.06
2022-08-05T22:06:52.805Z,99899.69
2022-08-05T22:09:54.501Z,99899.41
2022-08-05T22:13:08.771Z,99899.88
2022-08-05T22:16:42.080Z,99910.53
2022-08-05T22:20:00.358Z,99907.53
2022-08-05T22:23:24.037Z,99909.00
2022-08-05T22:26:49.617Z,99917.72
2022-08-05T22:29:54.240Z,99919.13
2022-08-05T22:32:56.105Z,99917.38
2022-08-05T22:35:59.894Z,99913.06
2022-08-05T22:39:04.388Z,99913.56
2022-08-05T22:42:15.280Z,99909.94
2022-08-05T22:45:23.394Z,99910.78
2022-08-05T22:48:27.234Z,99914.28
2022-08-05T22:52:03.126Z,99932.94
2022-08-05T22:54:51.027Z,99924.53
2022-08-05T22:57:53.815Z,99927.22
2022-08-05T23:00:57.166Z,99922.19
2022-08-05T23:03:59.740Z,99927.03
2022-08-05T23:07:01.861Z,99934.53
2022-08-05T23:10:04.463Z,99921.47
2022-08-05T23:13:06.205Z,99932.66
2022-08-05T23:16:08.071Z,99926.72
2022-08-05T23:19:10.144Z,99940.44
2022-08-05T23:22:27.463Z,99953.06
2022-08-05T23:25:53.412Z,99952.84
2022-08-05T23:28:51.500Z,99962.88
2022-08-05T23:31:55.825Z,99951.69
2022-08-05T23:34:58.606Z,99948.94
2022-08-05T23:38:00.310Z,99946.19
2022-08-05T23:41:02.409Z,99946.88
2022-08-05T23:44:06.522Z,99953.28
2022-08-05T23:47:14.393Z,99963.81
2022-08-05T23:50:20.045Z,99976.75
2022-08-05T23:53:22.571Z,99977.50
2022-08-05T23:56:27.354Z,99965.75
